SVBX weather

La Cabaña Airport
Zulia, Venezuela

Public forecast

Using degrees Celsius for public forecast. Weather courtesy of forecast.io.

METAR (pilot weather report)

Closest report is Alfonso López Pumarejo Airport, 51.6 nm (95.6 km) NW. Retrieved 2019/03/26 16:00 UTC (18 minutes ago):

SKVP 261600Z 08010KT 9999 FEW020 35/17 A2987

TAF (pilot weather forecast)

Forecast is more than 12 hours old.

Closest forecast is La Chinita International Airport, 74.6 nm (138.1 km) NE. Retrieved 2019/03/26 00:55 UTC (15 hours ago):

TAF SVMC 252200Z 2600/2700 01012KT 9999 FEW020 TX31/2615Z TN25/2608Z BECMG 2600/2604 04008KT 9999 SCT016 BKN020